createdAt,value
2018-12-14T00:00:35.454Z,98301.61
2018-12-14T00:03:03.818Z,98302.84
2018-12-14T00:05:32.087Z,98303.20
2018-12-14T00:08:01.226Z,98298.35
2018-12-14T00:10:29.560Z,98304.48
2018-12-14T00:12:57.881Z,98301.96
2018-12-14T00:15:26.180Z,98302.97
2018-12-14T00:17:54.658Z,98296.56
2018-12-14T00:20:23.198Z,98300.96
2018-12-14T00:22:51.501Z,98302.55
2018-12-14T00:25:19.989Z,98293.63
2018-12-14T00:27:48.292Z,98293.91
2018-12-14T00:30:16.570Z,98292.02
2018-12-14T00:32:44.893Z,98301.29
2018-12-14T00:35:13.490Z,98301.13
2018-12-14T00:37:41.913Z,98294.53
2018-12-14T00:40:10.293Z,98299.52
2018-12-14T00:42:38.645Z,98299.48
2018-12-14T00:45:06.909Z,98301.33
2018-12-14T00:47:35.222Z,98307.34
2018-12-14T00:50:03.494Z,98303.41
2018-12-14T00:52:32.066Z,98306.05
2018-12-14T00:55:00.521Z,98309.80
2018-12-14T00:57:28.889Z,98315.43
2018-12-14T00:59:57.190Z,98317.31
2018-12-14T01:02:30.502Z,98319.98
2018-12-14T01:04:58.999Z,98323.47
2018-12-14T01:07:27.491Z,98325.02
2018-12-14T01:09:55.930Z,98332.58
2018-12-14T01:12:24.360Z,98330.98
2018-12-14T01:14:52.859Z,98329.66
2018-12-14T01:17:21.196Z,98331.17
2018-12-14T01:19:49.664Z,98336.13
2018-12-14T01:22:18.057Z,98333.33
2018-12-14T01:24:46.486Z,98329.50
2018-12-14T01:27:14.788Z,98338.23
2018-12-14T01:29:43.109Z,98331.08
2018-12-14T01:32:11.443Z,98326.81
2018-12-14T01:34:39.842Z,98333.02
2018-12-14T01:37:08.330Z,98335.08
2018-12-14T01:39:36.650Z,98335.40
2018-12-14T01:42:05.220Z,98337.59
2018-12-14T01:44:34.094Z,98335.06
2018-12-14T01:47:02.418Z,98338.91
2018-12-14T01:49:30.802Z,98335.50
2018-12-14T01:51:59.201Z,98340.34
2018-12-14T01:54:27.570Z,98343.14
2018-12-14T01:56:55.935Z,98337.79
2018-12-14T01:59:24.270Z,98336.84
2018-12-14T02:01:52.574Z,98337.53
2018-12-14T02:04:21.991Z,98334.58
2018-12-14T02:06:50.521Z,98339.90
2018-12-14T02:09:18.784Z,98341.98
2018-12-14T02:11:47.144Z,98337.32
2018-12-14T02:14:15.709Z,98334.93
2018-12-14T02:16:44.005Z,98326.52
2018-12-14T02:19:12.309Z,98326.17
2018-12-14T02:21:40.786Z,98318.30
2018-12-14T02:24:09.089Z,98322.66
2018-12-14T02:26:37.460Z,98328.59
2018-12-14T02:29:06.206Z,98332.22
2018-12-14T02:31:34.655Z,98336.89
2018-12-14T02:34:03.313Z,98335.25
2018-12-14T02:36:31.637Z,98338.78
2018-12-14T02:39:00.150Z,98328.52
2018-12-14T02:41:28.434Z,98337.67
2018-12-14T02:43:56.647Z,98338.17
2018-12-14T02:46:25.098Z,98338.47
2018-12-14T02:48:53.944Z,98336.42
2018-12-14T02:51:22.276Z,98341.91
2018-12-14T02:53:51.940Z,98341.66
2018-12-14T02:56:20.326Z,98339.30
2018-12-14T02:58:48.614Z,98337.20
2018-12-14T03:01:16.994Z,98337.69
2018-12-14T03:03:45.306Z,98335.22
2018-12-14T03:06:13.564Z,98334.66
2018-12-14T03:08:41.963Z,98333.52
2018-12-14T03:11:10.378Z,98333.34
2018-12-14T03:13:38.695Z,98336.95
2018-12-14T03:16:07.035Z,98339.73
2018-12-14T03:18:36.002Z,98341.65
2018-12-14T03:21:04.387Z,98338.75
2018-12-14T03:23:32.794Z,98339.22
2018-12-14T03:26:01.092Z,98336.62
2018-12-14T03:28:29.377Z,98338.41
2018-12-14T03:30:57.717Z,98342.53
2018-12-14T03:33:26.129Z,98339.84
2018-12-14T03:35:54.551Z,98339.10
2018-12-14T03:38:22.850Z,98333.39
2018-12-14T03:40:51.166Z,98334.61
2018-12-14T03:43:19.507Z,98334.56
2018-12-14T03:45:48.012Z,98329.27
2018-12-14T03:48:16.594Z,98339.52
2018-12-14T03:50:44.917Z,98347.20
2018-12-14T03:53:13.347Z,98345.58
2018-12-14T03:55:41.673Z,98346.62
2018-12-14T03:58:09.929Z,98356.11
2018-12-14T04:00:38.530Z,98353.91
2018-12-14T04:03:07.563Z,98352.12
2018-12-14T04:05:36.133Z,98353.42
2018-12-14T04:08:04.446Z,98352.17
2018-12-14T04:10:32.710Z,98351.72
2018-12-14T04:13:01.179Z,98354.56
2018-12-14T04:15:29.581Z,98360.52
2018-12-14T04:17:57.892Z,98347.95
2018-12-14T04:20:26.239Z,98360.58
2018-12-14T04:22:54.599Z,98356.63
2018-12-14T04:25:22.915Z,98357.55
2018-12-14T04:27:51.246Z,98360.91
2018-12-14T04:30:19.646Z,98352.03
2018-12-14T04:32:48.033Z,98355.83
2018-12-14T04:35:16.415Z,98356.14
2018-12-14T04:37:44.719Z,98356.14
2018-12-14T04:40:13.167Z,98361.02
2018-12-14T04:42:48.610Z,98358.75
2018-12-14T04:45:11.973Z,98360.89
2018-12-14T04:47:40.270Z,98358.47
2018-12-14T04:50:08.771Z,98354.20
2018-12-14T04:52:38.863Z,98348.72
2018-12-14T04:55:07.285Z,98356.09
2018-12-14T04:57:35.586Z,98351.34
2018-12-14T05:00:04.625Z,98347.61
2018-12-14T05:02:32.899Z,98350.09
2018-12-14T05:05:01.205Z,98364.59
2018-12-14T05:07:29.527Z,98360.77
2018-12-14T05:09:58.121Z,98360.94
2018-12-14T05:12:26.579Z,98363.86
2018-12-14T05:14:55.047Z,98365.83
2018-12-14T05:17:23.422Z,98364.95
2018-12-14T05:19:51.928Z,98364.62
2018-12-14T05:22:20.190Z,98372.22
2018-12-14T05:24:48.467Z,98363.30
2018-12-14T05:27:16.850Z,98369.16
2018-12-14T05:29:45.764Z,98372.73
2018-12-14T05:32:14.105Z,98367.95
2018-12-14T05:34:42.736Z,98368.11
2018-12-14T05:37:11.062Z,98376.81
2018-12-14T05:39:39.354Z,98363.80
2018-12-14T05:42:07.835Z,98373.17
2018-12-14T05:44:36.080Z,98369.20
2018-12-14T05:47:04.549Z,98367.70
2018-12-14T05:49:32.971Z,98364.59
2018-12-14T05:52:01.369Z,98365.00
2018-12-14T05:54:29.702Z,98367.16
2018-12-14T05:56:58.034Z,98365.52
2018-12-14T05:59:26.359Z,98375.34
2018-12-14T06:01:54.781Z,98372.75
2018-12-14T06:04:23.119Z,98370.28
2018-12-14T06:06:51.534Z,98372.58
2018-12-14T06:09:19.851Z,98376.73
2018-12-14T06:11:48.338Z,98383.14
2018-12-14T06:14:16.655Z,98385.44
2018-12-14T06:20:16.156Z,98393.72
2018-12-14T06:22:44.482Z,98395.78
2018-12-14T06:25:13.416Z,98392.87
2018-12-14T06:27:42.006Z,98394.98
2018-12-14T06:30:11.666Z,98406.34
2018-12-14T06:41:12.025Z,98415.69
2018-12-14T06:43:40.408Z,98416.13
2018-12-14T06:46:08.656Z,98411.46
2018-12-14T06:48:37.188Z,98417.52
2018-12-14T06:51:05.985Z,98417.94
2018-12-14T06:53:34.333Z,98421.30
2018-12-14T06:56:02.854Z,98425.80
2018-12-14T06:58:31.175Z,98422.22
2018-12-14T07:00:59.693Z,98420.47
2018-12-14T07:03:28.856Z,98421.63
2018-12-14T07:05:58.999Z,98425.73
2018-12-14T07:08:27.326Z,98425.38
2018-12-14T07:10:55.639Z,98428.63
2018-12-14T07:13:24.117Z,98428.05
2018-12-14T07:15:52.488Z,98433.13
2018-12-14T07:18:20.773Z,98434.14
2018-12-14T07:20:49.453Z,98433.63
2018-12-14T07:23:17.783Z,98447.77
2018-12-14T07:25:46.166Z,98443.92
2018-12-14T07:28:14.428Z,98440.88
2018-12-14T07:30:42.686Z,98444.27
2018-12-14T07:33:11.092Z,98443.44
2018-12-14T07:35:42.108Z,98449.57
2018-12-14T07:38:22.103Z,98456.57
2018-12-14T07:47:39.254Z,98470.91
2018-12-14T07:50:08.337Z,98463.40
2018-12-14T07:52:36.899Z,98475.08
2018-12-14T07:55:06.670Z,98482.26
2018-12-14T07:57:35.045Z,98474.35
2018-12-14T08:00:03.628Z,98486.53
2018-12-14T08:02:32.131Z,98489.06
2018-12-14T08:11:30.823Z,98493.92
2018-12-14T08:13:59.163Z,98495.06
2018-12-14T08:16:27.520Z,98497.91
2018-12-14T08:18:55.971Z,98498.66
2018-12-14T08:21:24.681Z,98500.28
2018-12-14T08:23:53.155Z,98508.43
2018-12-14T08:26:21.519Z,98506.39
2018-12-14T08:31:40.498Z,98511.67
2018-12-14T08:34:08.966Z,98510.55
2018-12-14T08:36:37.391Z,98508.84
2018-12-14T08:39:07.983Z,98509.97
2018-12-14T08:41:37.983Z,98515.02
2018-12-14T08:44:06.689Z,98511.42
2018-12-14T08:46:35.090Z,98513.84
2018-12-14T08:49:03.371Z,98512.66
2018-12-14T08:51:31.935Z,98513.85
2018-12-14T08:54:00.575Z,98523.04
2018-12-14T08:56:28.914Z,98520.64
2018-12-14T08:58:57.252Z,98526.73
2018-12-14T09:01:25.558Z,98536.24
2018-12-14T09:03:53.941Z,98542.09
2018-12-14T09:06:22.292Z,98541.71
2018-12-14T09:08:50.651Z,98546.92
2018-12-14T09:11:19.047Z,98553.94
2018-12-14T09:13:48.038Z,98557.84
2018-12-14T09:16:16.554Z,98559.20
2018-12-14T09:18:45.514Z,98562.91
2018-12-14T09:21:13.884Z,98569.11
2018-12-14T09:23:42.960Z,98570.70
2018-12-14T09:26:11.275Z,98566.61
2018-12-14T09:28:39.927Z,98574.91
2018-12-14T09:31:08.338Z,98564.97
2018-12-14T09:33:36.635Z,98568.99
2018-12-14T09:36:05.081Z,98575.20
2018-12-14T09:38:33.431Z,98570.72
2018-12-14T09:41:01.791Z,98570.63
2018-12-14T09:43:30.066Z,98574.67
2018-12-14T09:45:58.842Z,98569.43
2018-12-14T09:48:27.341Z,98576.38
2018-12-14T09:50:55.820Z,98571.33
2018-12-14T09:53:24.103Z,98576.94
2018-12-14T09:55:52.495Z,98576.63
2018-12-14T09:58:20.899Z,98579.20
2018-12-14T10:00:49.281Z,98581.52
2018-12-14T10:03:17.645Z,98581.27
2018-12-14T10:05:46.306Z,98573.80
2018-12-14T10:08:14.810Z,98571.05
2018-12-14T10:10:43.533Z,98571.97
2018-12-14T10:13:11.935Z,98569.98
2018-12-14T10:15:40.235Z,98579.80
2018-12-14T10:18:08.588Z,98573.66
2018-12-14T10:20:36.891Z,98575.09
2018-12-14T10:23:05.516Z,98580.52
2018-12-14T10:25:33.935Z,98582.10
2018-12-14T10:28:02.279Z,98578.95
2018-12-14T10:30:30.647Z,98588.69
2018-12-14T10:32:59.006Z,98584.13
2018-12-14T10:35:27.408Z,98584.38
2018-12-14T10:37:55.866Z,98588.44
2018-12-14T10:40:24.260Z,98580.52
2018-12-14T10:42:52.604Z,98585.22
2018-12-14T10:45:22.117Z,98591.11
2018-12-14T10:47:50.528Z,98588.43
2018-12-14T10:50:18.889Z,98582.34
2018-12-14T10:52:47.403Z,98585.98
2018-12-14T10:55:15.727Z,98592.14
2018-12-14T10:57:44.537Z,98588.30
2018-12-14T11:00:20.824Z,98589.22
2018-12-14T11:02:49.155Z,98587.20
2018-12-14T11:05:17.587Z,98590.77
2018-12-14T11:07:45.898Z,98595.63
2018-12-14T11:10:14.456Z,98590.94
2018-12-14T11:12:42.756Z,98590.99
2018-12-14T11:15:11.058Z,98593.36
2018-12-14T11:17:39.415Z,98595.61
2018-12-14T11:20:09.463Z,98596.78
2018-12-14T11:22:37.874Z,98605.56
2018-12-14T11:25:07.435Z,98603.05
2018-12-14T11:27:35.922Z,98596.36
2018-12-14T11:30:04.456Z,98595.72
2018-12-14T11:32:32.755Z,98597.84
2018-12-14T11:35:01.148Z,98595.97
2018-12-14T11:37:29.720Z,98592.70
2018-12-14T11:39:58.240Z,98595.28
2018-12-14T11:42:27.189Z,98596.18
2018-12-14T11:44:56.360Z,98590.39
2018-12-14T11:47:24.939Z,98583.44
2018-12-14T11:49:53.281Z,98580.55
2018-12-14T11:52:21.935Z,98580.48
2018-12-14T11:54:50.236Z,98582.48
2018-12-14T11:57:18.662Z,98577.28
2018-12-14T11:59:47.202Z,98579.42
2018-12-14T12:02:15.654Z,98575.96
2018-12-14T12:04:45.080Z,98573.46
2018-12-14T12:07:14.013Z,98578.77
2018-12-14T12:09:42.444Z,98575.58
2018-12-14T12:12:10.852Z,98567.92
2018-12-14T12:14:39.290Z,98567.02
2018-12-14T12:17:07.664Z,98563.23
2018-12-14T12:19:36.020Z,98565.85
2018-12-14T12:22:04.311Z,98565.35
2018-12-14T12:24:32.657Z,98561.22
2018-12-14T12:27:01.017Z,98559.46
2018-12-14T12:29:29.406Z,98561.45
2018-12-14T12:31:57.760Z,98560.56
2018-12-14T12:34:27.063Z,98555.23
2018-12-14T12:36:55.445Z,98561.59
2018-12-14T12:39:23.744Z,98565.27
2018-12-14T12:41:52.163Z,98558.69
2018-12-14T12:44:21.377Z,98565.20
2018-12-14T12:46:49.702Z,98567.30
2018-12-14T12:49:18.354Z,98565.92
2018-12-14T12:51:46.981Z,98559.84
2018-12-14T12:54:15.308Z,98565.98
2018-12-14T12:56:43.714Z,98564.79
2018-12-14T12:59:12.038Z,98567.91
2018-12-14T13:01:40.355Z,98573.26
2018-12-14T13:04:08.824Z,98574.37
2018-12-14T13:06:37.208Z,98570.48
2018-12-14T13:09:06.230Z,98572.03
2018-12-14T13:11:34.758Z,98571.38
2018-12-14T13:14:03.290Z,98572.77
2018-12-14T13:16:31.571Z,98571.02
2018-12-14T13:18:59.948Z,98576.82
2018-12-14T13:21:28.809Z,98576.82
2018-12-14T13:23:57.613Z,98580.47
2018-12-14T13:26:25.945Z,98572.62
2018-12-14T13:28:54.341Z,98576.47
2018-12-14T13:31:29.133Z,98576.17
2018-12-14T13:33:57.466Z,98579.61
2018-12-14T13:36:25.986Z,98581.88
2018-12-14T13:38:54.314Z,98587.91
2018-12-14T13:41:23.376Z,98593.44
2018-12-14T13:43:51.879Z,98596.94
2018-12-14T13:46:20.479Z,98596.05
2018-12-14T13:48:49.215Z,98596.92
2018-12-14T13:51:17.630Z,98594.81
2018-12-14T13:53:46.140Z,98601.28
2018-12-14T13:56:14.463Z,98605.28
2018-12-14T13:58:42.929Z,98602.59
2018-12-14T14:01:11.805Z,98604.36
2018-12-14T14:03:40.283Z,98608.50
2018-12-14T14:06:09.947Z,98609.87
2018-12-14T14:08:38.231Z,98614.42
2018-12-14T14:11:06.592Z,98614.95
2018-12-14T14:13:35.570Z,98623.05
2018-12-14T14:16:03.865Z,98625.27
2018-12-14T14:18:32.265Z,98627.23
2018-12-14T14:21:00.689Z,98637.67
2018-12-14T14:23:29.069Z,98638.59
2018-12-14T14:25:57.620Z,98644.27
2018-12-14T14:28:26.047Z,98648.06
2018-12-14T14:30:54.627Z,98649.58
2018-12-14T14:33:23.069Z,98654.63
2018-12-14T14:35:51.965Z,98661.39
2018-12-14T14:38:20.506Z,98665.20
2018-12-14T14:40:48.907Z,98661.90
2018-12-14T14:43:17.534Z,98670.24
2018-12-14T14:45:46.329Z,98670.48
2018-12-14T14:48:17.049Z,98669.44
2018-12-14T14:50:45.857Z,98672.73
2018-12-14T14:53:14.436Z,98679.80
2018-12-14T14:55:42.778Z,98679.57
2018-12-14T14:58:11.130Z,98677.52
2018-12-14T15:00:39.501Z,98682.31
2018-12-14T15:03:08.140Z,98685.45
2018-12-14T15:05:36.722Z,98688.30
2018-12-14T15:08:05.403Z,98684.16
2018-12-14T15:10:33.742Z,98684.66
2018-12-14T15:13:02.124Z,98693.60
2018-12-14T15:15:31.072Z,98695.71
2018-12-14T15:17:59.394Z,98698.94
2018-12-14T15:20:27.902Z,98699.98
2018-12-14T15:22:56.380Z,98699.55
2018-12-14T15:25:24.787Z,98700.95
2018-12-14T15:27:53.105Z,98703.79
2018-12-14T15:30:21.559Z,98705.16
2018-12-14T15:32:49.991Z,98703.62
2018-12-14T15:35:18.495Z,98708.55
2018-12-14T15:37:46.816Z,98711.20
2018-12-14T15:40:15.255Z,98713.98
2018-12-14T15:42:44.054Z,98713.54
2018-12-14T15:45:13.423Z,98719.96
2018-12-14T15:47:42.183Z,98724.30
2018-12-14T15:50:10.662Z,98731.48
2018-12-14T15:52:39.379Z,98734.08
2018-12-14T15:55:07.998Z,98734.63
2018-12-14T15:57:36.667Z,98734.26
2018-12-14T16:00:05.790Z,98741.79
2018-12-14T16:02:34.329Z,98737.73
2018-12-14T16:05:02.983Z,98746.20
2018-12-14T16:07:31.537Z,98739.97
2018-12-14T16:09:59.863Z,98744.02
2018-12-14T16:12:28.191Z,98748.12
2018-12-14T16:14:56.653Z,98747.69
2018-12-14T16:17:25.040Z,98750.72
2018-12-14T16:19:53.427Z,98752.78
2018-12-14T16:22:21.994Z,98750.24
2018-12-14T16:24:50.355Z,98752.36
2018-12-14T16:27:18.835Z,98750.97
2018-12-14T16:29:47.336Z,98757.44
2018-12-14T16:32:15.764Z,98757.69
2018-12-14T16:34:44.717Z,98752.72
2018-12-14T16:37:13.245Z,98760.91
2018-12-14T16:39:42.469Z,98761.06
2018-12-14T16:42:10.850Z,98759.06
2018-12-14T16:44:39.362Z,98765.52
2018-12-14T16:47:07.778Z,98758.13
2018-12-14T16:49:36.275Z,98769.19
2018-12-14T16:52:04.932Z,98770.74
2018-12-14T16:54:33.289Z,98770.81
2018-12-14T16:57:01.678Z,98772.44
2018-12-14T16:59:30.043Z,98775.59
2018-12-14T17:01:58.363Z,98791.00
2018-12-14T17:04:26.772Z,98784.06
2018-12-14T17:06:55.482Z,98788.52
2018-12-14T17:09:23.997Z,98795.59
2018-12-14T17:11:52.474Z,98800.41
2018-12-14T17:14:21.007Z,98796.85
2018-12-14T17:16:49.532Z,98802.98
2018-12-14T17:19:18.094Z,98808.52
2018-12-14T17:21:46.420Z,98804.30
2018-12-14T17:24:15.137Z,98808.28
2018-12-14T17:26:43.915Z,98808.14
2018-12-14T17:29:12.958Z,98807.11
2018-12-14T17:31:41.537Z,98815.29
2018-12-14T17:34:10.307Z,98818.84
2018-12-14T17:36:38.801Z,98823.31
2018-12-14T17:39:07.988Z,98823.84
2018-12-14T17:41:40.447Z,98829.06
2018-12-14T17:44:09.710Z,98829.06
2018-12-14T17:46:38.388Z,98838.31
2018-12-14T17:49:06.755Z,98837.05
2018-12-14T17:51:35.468Z,98841.91
2018-12-14T17:54:03.824Z,98837.49
2018-12-14T17:56:32.196Z,98842.02
2018-12-14T17:59:00.536Z,98844.72
2018-12-14T18:01:28.999Z,98841.63
2018-12-14T18:03:57.300Z,98841.03
2018-12-14T18:06:25.641Z,98845.22
2018-12-14T18:08:53.998Z,98850.64
2018-12-14T18:11:22.375Z,98846.09
2018-12-14T18:13:50.889Z,98854.24
2018-12-14T18:16:19.623Z,98857.22
2018-12-14T18:18:47.966Z,98856.27
2018-12-14T18:21:16.280Z,98861.30
2018-12-14T18:23:44.824Z,98860.22
2018-12-14T18:26:13.121Z,98864.68
2018-12-14T18:28:41.531Z,98870.39
2018-12-14T18:31:09.904Z,98871.43
2018-12-14T18:33:38.296Z,98872.40
2018-12-14T18:36:06.709Z,98868.64
2018-12-14T18:38:35.035Z,98871.69
2018-12-14T18:41:03.334Z,98873.66
2018-12-14T18:43:31.722Z,98877.89
2018-12-14T18:46:00.004Z,98873.63
2018-12-14T18:48:28.308Z,98874.96
2018-12-14T18:50:57.109Z,98874.08
2018-12-14T18:53:25.489Z,98883.07
2018-12-14T18:55:53.930Z,98883.39
2018-12-14T18:58:22.257Z,98881.47
2018-12-14T19:00:50.827Z,98887.36
2018-12-14T19:03:19.235Z,98883.27
2018-12-14T19:05:47.694Z,98888.66
2018-12-14T19:08:16.262Z,98888.61
2018-12-14T19:10:44.677Z,98887.50
2018-12-14T19:13:13.223Z,98894.38
2018-12-14T19:15:41.649Z,98896.55
2018-12-14T19:18:09.987Z,98905.33
2018-12-14T19:20:38.289Z,98906.09
2018-12-14T19:23:06.641Z,98908.27
2018-12-14T19:25:35.644Z,98907.14
2018-12-14T19:28:04.179Z,98904.47
2018-12-14T19:30:32.492Z,98907.57
2018-12-14T19:33:00.967Z,98904.09
2018-12-14T19:35:29.413Z,98912.51
2018-12-14T19:37:57.979Z,98908.50
2018-12-14T19:40:26.522Z,98922.69
2018-12-14T19:42:54.929Z,98925.67
2018-12-14T19:45:23.334Z,98927.20
2018-12-14T19:47:51.631Z,98920.97
2018-12-14T19:50:20.198Z,98930.89
2018-12-14T19:52:48.521Z,98937.52
2018-12-14T19:55:17.028Z,98933.80
2018-12-14T19:57:45.379Z,98935.29
2018-12-14T20:00:13.862Z,98936.41
2018-12-14T20:02:42.194Z,98940.56
2018-12-14T20:05:10.508Z,98945.92
2018-12-14T20:07:38.859Z,98942.51
2018-12-14T20:10:08.436Z,98939.22
2018-12-14T20:12:37.078Z,98940.16
2018-12-14T20:15:06.201Z,98936.44
2018-12-14T20:17:34.639Z,98951.24
2018-12-14T20:20:02.933Z,98949.56
2018-12-14T20:22:31.248Z,98955.75
2018-12-14T20:24:59.653Z,98963.09
2018-12-14T20:27:28.228Z,98954.44
2018-12-14T20:29:56.598Z,98953.47
2018-12-14T20:32:24.985Z,98961.75
2018-12-14T20:34:54.234Z,98961.09
2018-12-14T20:37:22.657Z,98963.64
2018-12-14T20:39:51.130Z,98962.63
2018-12-14T20:42:20.007Z,98966.82
2018-12-14T20:44:48.715Z,98964.86
2018-12-14T20:47:17.139Z,98963.87
2018-12-14T20:49:45.518Z,98963.59
2018-12-14T20:52:13.903Z,98959.47
2018-12-14T20:54:42.487Z,98968.50
2018-12-14T20:57:11.131Z,98960.59
2018-12-14T20:59:39.461Z,98958.38
2018-12-14T21:02:08.244Z,98958.61
2018-12-14T21:04:36.934Z,98957.73
2018-12-14T21:07:05.321Z,98962.88
2018-12-14T21:09:33.957Z,98960.88
2018-12-14T21:12:02.399Z,98961.39
2018-12-14T21:14:30.965Z,98966.04
2018-12-14T21:16:59.786Z,98964.68
2018-12-14T21:19:28.137Z,98962.95
2018-12-14T21:21:57.399Z,98967.97
2018-12-14T21:24:25.873Z,98970.52
2018-12-14T21:26:54.328Z,98973.72
2018-12-14T21:29:22.767Z,98965.02
2018-12-14T21:31:51.132Z,98968.66
2018-12-14T21:34:19.731Z,98963.66
2018-12-14T21:36:48.185Z,98966.70
2018-12-14T21:39:16.845Z,98961.85
2018-12-14T21:41:45.452Z,98960.12
2018-12-14T21:44:13.737Z,98955.33
2018-12-14T21:46:42.119Z,98953.55
2018-12-14T21:49:10.449Z,98955.06
2018-12-14T21:51:38.818Z,98959.62
2018-12-14T21:54:07.123Z,98960.09
2018-12-14T21:56:35.562Z,98955.25
2018-12-14T21:59:04.225Z,98954.50
2018-12-14T22:01:32.740Z,98954.73
2018-12-14T22:04:01.118Z,98947.50
2018-12-14T22:06:30.450Z,98950.13
2018-12-14T22:08:59.343Z,98943.47
2018-12-14T22:11:27.765Z,98945.70
2018-12-14T22:13:56.220Z,98941.79
2018-12-14T22:16:24.540Z,98938.64
2018-12-14T22:18:52.861Z,98942.12
2018-12-14T22:21:23.974Z,98939.78
2018-12-14T22:23:52.604Z,98938.46
2018-12-14T22:26:21.290Z,98939.65
2018-12-14T22:28:50.261Z,98942.57
2018-12-14T22:31:19.061Z,98933.00
2018-12-14T22:38:44.361Z,98939.06
2018-12-14T22:41:12.911Z,98937.53
2018-12-14T22:43:41.345Z,98930.23
2018-12-14T22:46:09.865Z,98927.91
2018-12-14T22:48:39.256Z,98930.52
2018-12-14T22:51:07.800Z,98938.11
2018-12-14T22:53:36.340Z,98935.35
2018-12-14T22:56:04.834Z,98945.02
2018-12-14T22:58:33.299Z,98941.54
2018-12-14T23:01:01.809Z,98940.57
2018-12-14T23:03:30.316Z,98945.82
2018-12-14T23:05:59.206Z,98946.19
2018-12-14T23:08:27.559Z,98948.07
2018-12-14T23:10:55.918Z,98943.30
2018-12-14T23:13:24.320Z,98952.00
2018-12-14T23:15:55.449Z,98945.92
2018-12-14T23:18:26.925Z,98941.98
2018-12-14T23:20:55.522Z,98950.59
2018-12-14T23:23:24.327Z,98944.66
2018-12-14T23:25:53.191Z,98943.21
2018-12-14T23:28:21.578Z,98951.76
2018-12-14T23:31:07.666Z,98947.09
2018-12-14T23:33:39.652Z,98946.78
2018-12-14T23:36:08.023Z,98950.35
2018-12-14T23:38:38.122Z,98951.42
2018-12-14T23:41:08.715Z,98955.38
2018-12-14T23:43:37.235Z,98954.73
2018-12-14T23:46:07.265Z,98956.04
2018-12-14T23:48:35.622Z,98960.65
2018-12-14T23:51:04.455Z,98964.37
2018-12-14T23:53:32.834Z,98965.54
2018-12-14T23:56:02.022Z,98962.64
2018-12-14T23:58:30.486Z,98962.77
